Time;durP1;ratioP1;P1;durP2;ratioP2;P2;SDS_P1;SDS_P2;PMS_P1;PMS_P2;Temp;Humidity;BMP_temperature;BMP_pressure;BME280_temperature;BME280_humidity;BME280_pressure;Samples;Min_cycle;Max_cycle;Signal;HPM_P1;HPM_P2
2022/08/08 00:02:12;;;;;;;5.40;2.33;;;16.10;99.90;;;;;;5032641;28;20194;-95
2022/08/08 00:05:15;;;;;;;5.47;2.87;;;16.10;99.90;;;;;;5012753;28;20272;-94
2022/08/08 00:07:51;;;;;;;5.00;2.60;;;16.00;99.90;;;;;;5012231;28;20195;-93
2022/08/08 00:10:41;;;;;;;4.47;2.70;;;15.90;99.90;;;;;;5029515;28;20191;-94
2022/08/08 00:13:19;;;;;;;5.30;2.73;;;15.90;99.90;;;;;;4992186;28;20569;-94
2022/08/08 00:16:10;;;;;;;7.90;3.90;;;15.80;99.90;;;;;;5012053;28;20578;-95
2022/08/08 00:19:05;;;;;;;3.40;2.40;;;15.70;99.90;;;;;;5019643;28;20699;-95
2022/08/08 00:21:36;;;;;;;5.57;2.80;;;15.70;99.90;;;;;;5003124;28;20302;-94
2022/08/08 00:24:16;;;;;;;5.00;2.43;;;15.70;99.90;;;;;;5028414;28;20707;-94
2022/08/08 00:26:49;;;;;;;4.23;2.50;;;15.60;99.90;;;;;;5039584;28;20282;-93
2022/08/08 00:29:33;;;;;;;7.23;2.73;;;15.60;99.90;;;;;;5016367;28;20203;-95
2022/08/08 00:32:14;;;;;;;3.43;2.80;;;15.60;99.90;;;;;;5016078;28;20243;-94
2022/08/08 00:35:11;;;;;;;5.77;2.40;;;15.60;99.90;;;;;;5035053;28;20205;-94
2022/08/08 00:37:54;;;;;;;4.20;2.57;;;15.50;99.90;;;;;;5015986;28;20211;-95
2022/08/08 00:40:29;;;;;;;4.57;2.73;;;15.40;99.90;;;;;;5016076;28;20258;-94
2022/08/08 00:43:16;;;;;;;3.07;2.53;;;15.50;99.90;;;;;;5015278;28;20214;-94
2022/08/08 00:45:54;;;;;;;7.33;3.10;;;15.50;99.90;;;;;;5032465;28;20245;-94
2022/08/08 00:48:32;;;;;;;6.10;2.67;;;15.60;99.90;;;;;;5035211;28;20937;-94
2022/08/08 00:51:05;;;;;;;3.23;2.53;;;15.60;99.90;;;;;;5034957;28;20296;-93
2022/08/08 00:54:01;;;;;;;6.00;2.57;;;15.70;99.90;;;;;;5031190;28;20237;-93
2022/08/08 00:57:11;;;;;;;9.23;3.03;;;15.60;99.90;;;;;;5029592;28;20219;-93
2022/08/08 00:59:55;;;;;;;3.10;2.70;;;15.70;99.90;;;;;;5001741;28;20215;-94
2022/08/08 01:02:58;;;;;;;3.80;2.53;;;15.70;99.90;;;;;;5016444;28;20223;-94
2022/08/08 01:05:38;;;;;;;3.33;2.73;;;15.80;99.90;;;;;;5026747;28;20215;-94
2022/08/08 01:08:34;;;;;;;3.50;1.97;;;15.80;99.90;;;;;;5022154;28;20218;-94
2022/08/08 01:11:27;;;;;;;5.53;3.17;;;15.90;99.90;;;;;;5002695;28;20297;-94
2022/08/08 01:14:02;;;;;;;3.33;2.17;;;15.90;99.90;;;;;;5036577;28;20346;-93
2022/08/08 01:16:59;;;;;;;4.67;3.03;;;16.00;99.90;;;;;;5054283;28;20175;-94
2022/08/08 01:19:42;;;;;;;3.00;2.67;;;16.00;99.90;;;;;;5016710;28;20219;-93
2022/08/08 01:22:30;;;;;;;5.00;3.20;;;15.90;99.90;;;;;;5018370;28;20207;-94
2022/08/08 01:25:17;;;;;;;3.50;1.90;;;16.00;99.90;;;;;;5034932;28;20223;-94
2022/08/08 01:28:02;;;;;;;3.20;2.40;;;16.00;99.90;;;;;;5034225;28;20222;-94
2022/08/08 01:31:00;;;;;;;4.27;2.73;;;16.00;99.90;;;;;;5034329;28;20234;-94
2022/08/08 01:34:03;;;;;;;3.73;2.30;;;16.20;99.90;;;;;;5001046;28;20298;-94
2022/08/08 01:36:35;;;;;;;5.03;2.57;;;16.20;99.90;;;;;;5014383;28;20583;-94
2022/08/08 01:39:36;;;;;;;3.00;2.53;;;16.30;99.90;;;;;;5014686;28;20230;-94
2022/08/08 01:42:11;;;;;;;6.20;2.33;;;16.40;99.90;;;;;;5014817;28;20210;-94
2022/08/08 01:44:45;;;;;;;3.77;2.40;;;16.40;99.90;;;;;;5014209;28;20218;-94
2022/08/08 01:47:20;;;;;;;3.90;2.47;;;16.50;99.90;;;;;;5014069;28;20246;-94
2022/08/08 01:50:07;;;;;;;3.83;2.57;;;16.50;99.90;;;;;;5017518;28;20182;-94
2022/08/08 01:53:06;;;;;;;3.97;2.27;;;16.40;99.90;;;;;;5021268;28;20171;-94
2022/08/08 01:55:58;;;;;;;4.03;2.40;;;16.40;99.90;;;;;;5030998;28;20253;-92
2022/08/08 01:59:05;;;;;;;18.30;2.57;;;16.40;99.90;;;;;;5035180;28;20187;-94
2022/08/08 02:02:00;;;;;;;3.53;1.73;;;16.40;99.90;;;;;;5030448;28;20270;-94
2022/08/08 02:04:36;;;;;;;2.33;1.80;;;16.30;99.90;;;;;;5023692;28;20273;-95
2022/08/08 02:07:23;;;;;;;2.90;2.57;;;16.30;99.90;;;;;;5022198;28;20241;-91
2022/08/08 02:10:26;;;;;;;3.80;1.80;;;16.30;99.90;;;;;;5030070;28;20226;-91
2022/08/08 02:12:59;;;;;;;6.43;2.70;;;16.20;99.90;;;;;;5029850;28;20259;-90
2022/08/08 02:15:52;;;;;;;6.00;2.03;;;16.20;99.90;;;;;;5013734;28;20211;-91
2022/08/08 02:18:23;;;;;;;4.13;2.00;;;16.20;99.90;;;;;;5013269;28;20708;-91
2022/08/08 02:23:49;;;;;;;4.50;3.20;;;16.20;99.90;;;;;;5014383;28;20211;-91
2022/08/08 02:26:40;;;;;;;3.00;2.17;;;16.20;99.90;;;;;;5013201;28;20203;-90
2022/08/08 02:29:25;;;;;;;9.43;3.37;;;16.20;99.90;;;;;;5028442;28;20215;-90
2022/08/08 02:32:23;;;;;;;5.27;2.27;;;16.20;99.90;;;;;;5013460;28;20207;-90
2022/08/08 02:35:01;;;;;;;5.07;3.00;;;16.20;99.90;;;;;;5029755;28;20167;-90
2022/08/08 02:37:55;;;;;;;2.87;2.57;;;16.20;99.90;;;;;;5033276;28;20281;-90
2022/08/08 02:40:55;;;;;;;4.30;2.87;;;16.20;99.90;;;;;;5011654;28;20368;-92
2022/08/08 02:43:29;;;;;;;5.23;2.13;;;16.20;99.90;;;;;;5025433;28;20302;-92
2022/08/08 02:46:10;;;;;;;2.53;2.23;;;16.20;99.90;;;;;;5029193;28;20301;-91
2022/08/08 02:49:00;;;;;;;4.27;2.57;;;16.20;99.90;;;;;;5029426;28;20329;-90
2022/08/08 02:51:47;;;;;;;3.50;2.20;;;16.20;99.90;;;;;;5046856;28;20218;-91
2022/08/08 02:54:52;;;;;;;3.73;2.37;;;16.20;99.90;;;;;;5048847;28;20253;-91
2022/08/08 02:57:55;;;;;;;3.50;2.50;;;16.20;99.90;;;;;;5028795;28;20225;-91
2022/08/08 03:00:55;;;;;;;3.53;1.80;;;16.20;99.90;;;;;;5019758;28;20202;-91
2022/08/08 03:03:58;;;;;;;5.53;2.40;;;16.10;99.90;;;;;;5032339;28;20340;-91
2022/08/08 03:06:30;;;;;;;3.77;2.27;;;16.10;99.90;;;;;;5028029;28;20264;-91
2022/08/08 03:08:58;;;;;;;2.37;2.17;;;16.00;99.90;;;;;;5020378;28;20207;-91
2022/08/08 03:11:59;;;;;;;5.67;2.27;;;16.00;99.90;;;;;;5012954;28;20949;-91
2022/08/08 03:14:53;;;;;;;3.93;2.03;;;16.00;99.90;;;;;;5012744;28;20217;-90
2022/08/08 03:17:46;;;;;;;3.03;2.27;;;16.00;99.90;;;;;;5020678;28;20226;-90
2022/08/08 03:20:14;;;;;;;2.37;1.87;;;16.00;99.90;;;;;;5017008;28;20207;-90
2022/08/08 03:22:51;;;;;;;5.60;2.53;;;15.90;99.90;;;;;;5016602;28;20195;-91
2022/08/08 03:25:20;;;;;;;5.47;2.40;;;15.90;99.90;;;;;;5016581;28;20183;-90
2022/08/08 03:27:53;;;;;;;4.23;2.17;;;15.90;99.90;;;;;;5012321;28;20264;-90
2022/08/08 03:30:19;;;;;;;3.87;2.47;;;16.00;99.90;;;;;;5025658;28;20724;-90
2022/08/08 03:35:35;;;;;;;7.47;2.77;;;16.00;99.90;;;;;;5012652;28;20211;-90
2022/08/08 03:38:01;;;;;;;5.30;2.27;;;16.00;99.90;;;;;;4996738;28;20297;-91
2022/08/08 03:40:27;;;;;;;3.47;2.57;;;16.10;99.90;;;;;;4996585;28;20283;-91
2022/08/08 03:42:53;;;;;;;3.00;2.03;;;16.00;99.90;;;;;;5009188;28;20663;-91
2022/08/08 03:45:21;;;;;;;4.47;1.80;;;16.00;99.90;;;;;;4995853;28;20294;-90
2022/08/08 03:48:04;;;;;;;2.70;1.80;;;16.10;99.90;;;;;;5031610;28;20222;-90
2022/08/08 03:50:35;;;;;;;3.27;1.80;;;16.10;99.90;;;;;;5032336;28;20218;-91
2022/08/08 03:53:13;;;;;;;3.30;2.33;;;16.10;99.90;;;;;;5015524;28;20241;-90
2022/08/08 03:55:44;;;;;;;3.40;2.23;;;16.10;99.90;;;;;;5033252;28;20171;-91
2022/08/08 03:58:17;;;;;;;3.90;2.00;;;16.10;99.90;;;;;;5032503;28;20674;-91
2022/08/08 04:00:50;;;;;;;2.90;1.77;;;16.00;99.90;;;;;;5032250;28;20218;-91
2022/08/08 04:03:16;;;;;;;4.27;2.87;;;16.00;99.90;;;;;;5031673;28;20217;-91
2022/08/08 04:05:42;;;;;;;5.17;2.37;;;16.00;99.90;;;;;;5015335;28;20210;-91
2022/08/08 04:08:18;;;;;;;6.07;2.60;;;16.00;99.90;;;;;;5018753;28;20289;-93
2022/08/08 04:10:49;;;;;;;3.10;2.37;;;15.90;99.90;;;;;;5035415;28;20205;-91
2022/08/08 04:13:15;;;;;;;5.47;2.00;;;15.90;99.90;;;;;;5019521;28;20719;-91
2022/08/08 04:15:42;;;;;;;3.00;2.20;;;15.90;99.90;;;;;;4999569;28;20208;-93
2022/08/08 04:18:08;;;;;;;2.60;2.37;;;15.90;99.90;;;;;;5015372;28;20226;-89
2022/08/08 04:20:33;;;;;;;6.70;2.47;;;15.80;99.90;;;;;;5015442;28;20211;-89
2022/08/08 04:22:59;;;;;;;3.90;2.13;;;15.80;99.90;;;;;;4999406;28;20218;-91
2022/08/08 04:25:25;;;;;;;8.33;2.93;;;15.80;99.90;;;;;;5016001;28;20278;-91
2022/08/08 04:27:51;;;;;;;6.17;2.87;;;15.80;99.90;;;;;;4994695;28;20274;-89
2022/08/08 04:30:17;;;;;;;3.83;2.43;;;15.80;99.90;;;;;;4985181;28;20220;-90
2022/08/08 04:32:42;;;;;;;3.37;2.37;;;15.80;99.90;;;;;;5005335;28;20293;-89
2022/08/08 04:35:08;;;;;;;2.70;2.40;;;15.70;99.90;;;;;;4993962;28;20295;-89
2022/08/08 04:37:34;;;;;;;3.00;2.43;;;15.70;99.90;;;;;;4996260;28;20211;-89
2022/08/08 04:40:00;;;;;;;3.53;2.40;;;15.70;99.90;;;;;;4983592;28;20180;-90
2022/08/08 04:42:27;;;;;;;3.23;2.77;;;15.70;99.90;;;;;;5024556;28;20234;-90
2022/08/08 04:44:56;;;;;;;5.30;3.10;;;15.70;99.90;;;;;;5015146;28;20230;-90
2022/08/08 04:47:21;;;;;;;4.07;2.70;;;15.70;99.90;;;;;;4998978;28;20235;-90
2022/08/08 04:49:47;;;;;;;5.00;3.03;;;15.70;99.90;;;;;;4998894;28;20191;-90
2022/08/08 04:52:13;;;;;;;4.80;2.77;;;15.70;99.90;;;;;;4999594;28;20176;-90
2022/08/08 04:54:39;;;;;;;3.03;2.17;;;15.70;99.90;;;;;;4982687;28;20261;-90
2022/08/08 04:57:04;;;;;;;4.40;3.00;;;15.70;99.90;;;;;;4998737;28;20245;-89
2022/08/08 04:59:30;;;;;;;4.80;2.97;;;15.80;99.90;;;;;;4998481;28;20699;-91
2022/08/08 05:01:56;;;;;;;8.13;3.47;;;16.00;99.90;;;;;;4998866;28;20250;-90
2022/08/08 05:04:22;;;;;;;5.37;3.13;;;16.10;99.90;;;;;;5015094;28;20670;-90
2022/08/08 05:06:48;;;;;;;9.33;3.33;;;16.20;99.90;;;;;;4998478;28;20211;-89
2022/08/08 05:09:14;;;;;;;6.43;3.13;;;16.40;99.90;;;;;;4998425;28;20690;-89
2022/08/08 05:11:40;;;;;;;5.47;3.87;;;16.50;99.90;;;;;;5014775;28;20218;-89
2022/08/08 05:14:07;;;;;;;6.90;3.40;;;16.60;99.90;;;;;;4998604;28;20273;-88
2022/08/08 05:16:33;;;;;;;4.77;3.03;;;16.70;99.90;;;;;;5007292;28;20198;-89
2022/08/08 05:18:59;;;;;;;4.00;3.40;;;16.80;99.90;;;;;;5014522;28;20245;-91
2022/08/08 05:21:25;;;;;;;4.27;2.93;;;16.90;99.90;;;;;;5035867;28;20238;-89
2022/08/08 05:24:00;;;;;;;5.90;2.67;;;17.00;99.90;;;;;;5018020;28;20246;-89
2022/08/08 05:26:38;;;;;;;8.37;2.53;;;17.50;99.90;;;;;;5006780;28;20218;-91
2022/08/08 05:32:47;;;;;;;4.37;2.70;;;18.30;99.90;;;;;;5027495;28;20233;-90
2022/08/08 05:35:23;;;;;;;3.80;2.43;;;18.80;99.90;;;;;;5013062;28;20219;-90
2022/08/08 05:38:01;;;;;;;13.63;3.17;;;19.60;99.90;;;;;;5013313;28;20253;-90
2022/08/08 05:40:28;;;;;;;3.03;2.60;;;20.70;99.90;;;;;;5033029;28;20270;-90
2022/08/08 05:43:00;;;;;;;2.80;1.90;;;22.70;99.90;;;;;;5013201;28;20212;-92
2022/08/08 05:45:27;;;;;;;2.23;1.93;;;25.30;99.90;;;;;;5009212;28;20237;-90
2022/08/08 05:47:53;;;;;;;3.03;1.87;;;26.40;99.90;;;;;;5029555;28;20346;-90
2022/08/08 05:50:19;;;;;;;10.30;1.80;;;25.90;99.90;;;;;;4996531;28;20230;-90
2022/08/08 05:52:47;;;;;;;2.00;1.40;;;24.50;99.90;;;;;;4964597;28;20652;-90
2022/08/08 05:55:12;;;;;;;1.80;1.70;;;23.50;99.90;;;;;;4980899;28;20237;-91
2022/08/08 05:57:39;;;;;;;4.43;1.57;;;23.60;99.90;;;;;;4964268;28;20243;-89
2022/08/08 06:00:08;;;;;;;2.23;1.20;;;23.40;99.90;;;;;;4982608;28;20222;-88
2022/08/08 06:05:20;;;;;;;3.23;1.47;;;23.90;99.90;;;;;;5009841;28;20215;-89
2022/08/08 06:07:50;;;;;;;2.83;1.17;;;26.10;99.90;;;;;;5015359;28;20183;-89
2022/08/08 06:10:16;;;;;;;5.23;1.30;;;26.70;99.90;;;;;;4998685;28;20196;-89
2022/08/08 06:12:42;;;;;;;1.90;1.00;;;26.90;99.90;;;;;;5016788;28;20297;-89
2022/08/08 06:15:10;;;;;;;1.33;1.23;;;27.30;99.90;;;;;;5016636;28;20218;-90
2022/08/08 06:17:38;;;;;;;1.20;1.08;;;28.40;99.90;;;;;;5029840;28;20226;-90
2022/08/08 06:20:07;;;;;;;1.20;1.10;;;28.70;99.90;;;;;;5026681;28;20234;-91
2022/08/08 06:22:33;;;;;;;3.72;1.17;;;28.00;99.90;;;;;;5029666;28;20183;-90
2022/08/08 06:24:59;;;;;;;1.42;1.20;;;27.30;99.90;;;;;;5030602;28;20535;-88
2022/08/08 06:27:53;;;;;;;1.25;1.15;;;25.60;99.90;;;;;;5016492;28;20693;-91
2022/08/08 06:30:19;;;;;;;1.90;1.10;;;23.20;99.90;;;;;;5041383;28;20237;-88
2022/08/08 06:32:57;;;;;;;2.38;1.60;;;22.40;99.90;;;;;;5033303;28;20242;-89
2022/08/08 06:35:23;;;;;;;3.40;1.20;;;21.50;99.90;;;;;;5032466;28;20210;-88
2022/08/08 06:37:58;;;;;;;2.10;1.10;;;20.90;99.90;;;;;;5029519;28;20577;-88
2022/08/08 06:40:28;;;;;;;1.20;1.10;;;20.50;99.90;;;;;;5023967;28;20186;-89
2022/08/08 06:43:04;;;;;;;2.70;1.20;;;20.40;99.90;;;;;;5016704;28;20211;-88
2022/08/08 06:45:35;;;;;;;1.27;1.17;;;20.70;99.90;;;;;;5031275;28;20202;-89
2022/08/08 06:48:01;;;;;;;1.67;1.57;;;20.60;99.90;;;;;;5016058;28;20230;-88
2022/08/08 06:50:27;;;;;;;1.27;1.17;;;20.60;99.90;;;;;;5031479;28;20264;-88
2022/08/08 06:52:53;;;;;;;1.30;1.10;;;21.00;99.90;;;;;;5012670;28;20261;-88
2022/08/08 06:55:20;;;;;;;3.20;1.40;;;21.20;99.90;;;;;;5031511;28;20647;-88
2022/08/08 06:57:46;;;;;;;4.67;1.53;;;21.10;99.90;;;;;;5015811;28;20244;-88
2022/08/08 07:00:15;;;;;;;2.40;1.20;;;20.70;99.90;;;;;;5015853;28;20288;-88
2022/08/08 07:02:49;;;;;;;1.90;1.40;;;20.90;99.90;;;;;;5032056;28;20207;-88
2022/08/08 07:05:16;;;;;;;2.50;1.10;;;20.70;99.90;;;;;;5022351;28;20215;-90
2022/08/08 07:08:08;;;;;;;4.90;1.20;;;20.70;99.90;;;;;;5016021;28;20273;-88
2022/08/08 07:10:40;;;;;;;1.83;1.40;;;20.60;99.90;;;;;;5030156;28;20181;-89
2022/08/08 07:13:08;;;;;;;5.93;2.27;;;20.40;99.90;;;;;;5016362;28;20181;-88
2022/08/08 07:15:42;;;;;;;1.30;1.20;;;20.30;99.90;;;;;;5020991;28;20211;-88
2022/08/08 07:18:09;;;;;;;3.97;1.60;;;20.70;99.90;;;;;;5012289;28;20250;-88
2022/08/08 07:20:37;;;;;;;1.60;1.50;;;20.60;99.90;;;;;;5002130;28;20230;-88
2022/08/08 07:23:13;;;;;;;1.50;1.40;;;20.30;99.90;;;;;;5007913;28;20207;-88
2022/08/08 07:25:41;;;;;;;3.23;1.60;;;20.30;99.90;;;;;;5001092;28;20180;-88
2022/08/08 07:28:15;;;;;;;1.93;1.20;;;20.50;99.90;;;;;;5001477;28;20583;-88
2022/08/08 07:30:42;;;;;;;7.80;2.10;;;20.60;99.90;;;;;;4994003;28;20215;-88
2022/08/08 07:33:10;;;;;;;1.73;1.47;;;20.80;99.90;;;;;;5012293;28;20215;-89
2022/08/08 07:35:39;;;;;;;1.53;1.43;;;22.70;99.90;;;;;;5020935;28;20214;-91
2022/08/08 07:38:08;;;;;;;3.75;1.50;;;25.50;99.90;;;;;;5011800;28;20774;-89
2022/08/08 07:40:35;;;;;;;3.63;1.75;;;24.40;99.90;;;;;;4996664;28;20229;-92
2022/08/08 07:43:04;;;;;;;1.52;1.23;;;22.70;99.90;;;;;;5020573;28;20630;-93
2022/08/08 07:45:30;;;;;;;1.00;0.90;;;21.60;99.90;;;;;;5034804;28;20572;-93
2022/08/08 07:47:57;;;;;;;3.78;1.48;;;21.30;99.90;;;;;;5016327;28;20691;-93
2022/08/08 07:50:26;;;;;;;1.40;1.30;;;20.80;99.90;;;;;;5016364;28;20219;-92
2022/08/08 07:52:58;;;;;;;1.40;1.30;;;20.60;99.90;;;;;;5032615;28;20215;-93
2022/08/08 07:55:26;;;;;;;1.45;1.30;;;20.50;99.90;;;;;;5033338;28;20567;-92
2022/08/08 07:58:12;;;;;;;4.83;1.73;;;20.40;99.90;;;;;;5032618;28;20223;-93
2022/08/08 08:00:46;;;;;;;2.00;1.80;;;20.40;99.90;;;;;;5036001;28;20211;-93
2022/08/08 08:03:17;;;;;;;1.53;1.43;;;20.40;99.90;;;;;;5035956;28;20218;-93
2022/08/08 08:05:46;;;;;;;4.37;1.63;;;20.20;99.90;;;;;;5035604;28;20579;-93
2022/08/08 08:08:20;;;;;;;3.70;1.50;;;20.20;99.90;;;;;;5013905;28;20211;-93
2022/08/08 08:10:50;;;;;;;5.00;2.00;;;20.20;99.90;;;;;;5001439;28;20186;-91
2022/08/08 08:13:40;;;;;;;1.63;1.40;;;20.10;99.90;;;;;;5016834;28;20211;-92
2022/08/08 08:16:14;;;;;;;2.00;1.50;;;20.20;99.90;;;;;;5016334;28;20233;-92
2022/08/08 08:18:45;;;;;;;2.97;1.67;;;20.00;99.90;;;;;;5016002;28;20695;-94
2022/08/08 08:21:12;;;;;;;4.97;1.60;;;20.00;99.90;;;;;;5015883;28;20211;-93
2022/08/08 08:23:38;;;;;;;2.23;1.43;;;19.70;99.90;;;;;;4999369;28;20208;-92
2022/08/08 08:26:04;;;;;;;2.67;2.00;;;19.60;99.90;;;;;;4999621;28;20218;-93
2022/08/08 08:28:30;;;;;;;2.60;2.40;;;19.60;99.90;;;;;;4999521;28;20203;-92
2022/08/08 08:30:57;;;;;;;4.40;2.10;;;19.60;99.90;;;;;;5047362;28;20219;-92
2022/08/08 08:33:24;;;;;;;4.33;1.60;;;19.60;99.90;;;;;;5019175;28;20245;-92
2022/08/08 08:35:50;;;;;;;4.23;2.23;;;19.50;99.90;;;;;;5019049;28;20244;-91
2022/08/08 08:38:15;;;;;;;2.43;2.03;;;19.40;99.90;;;;;;5015476;28;20251;-93
2022/08/08 08:40:41;;;;;;;3.13;2.03;;;19.40;99.90;;;;;;5001771;28;20195;-91
2022/08/08 08:43:09;;;;;;;3.00;1.70;;;19.50;99.90;;;;;;5019382;28;20241;-92
2022/08/08 08:45:36;;;;;;;2.00;1.90;;;19.50;99.90;;;;;;5028323;28;20218;-91
2022/08/08 08:48:03;;;;;;;3.63;2.60;;;19.50;99.90;;;;;;5031560;28;20227;-91
2022/08/08 08:50:30;;;;;;;3.73;1.63;;;19.50;99.90;;;;;;5018321;28;20218;-91
2022/08/08 08:52:57;;;;;;;1.87;1.77;;;19.40;99.90;;;;;;5008284;28;20214;-91
2022/08/08 08:55:24;;;;;;;3.70;2.53;;;19.50;99.90;;;;;;4999357;28;20183;-91
2022/08/08 08:57:52;;;;;;;2.27;1.87;;;19.60;99.90;;;;;;5015106;28;20219;-91
2022/08/08 09:00:18;;;;;;;2.27;1.80;;;19.60;99.90;;;;;;5034903;28;20295;-91
2022/08/08 09:02:46;;;;;;;1.90;1.70;;;19.70;99.90;;;;;;5015945;28;20293;-91
2022/08/08 09:05:13;;;;;;;2.50;1.93;;;19.80;99.90;;;;;;5035044;28;20210;-92
2022/08/08 09:07:42;;;;;;;2.20;1.97;;;19.80;99.90;;;;;;5018295;28;20213;-91
2022/08/08 09:10:11;;;;;;;2.77;1.80;;;19.80;99.90;;;;;;5034980;28;20217;-91
2022/08/08 09:12:38;;;;;;;3.33;1.90;;;19.80;99.90;;;;;;5034387;28;20241;-92
2022/08/08 09:15:05;;;;;;;2.70;1.57;;;19.90;99.90;;;;;;5007523;28;20242;-92
2022/08/08 09:17:32;;;;;;;3.73;1.83;;;20.00;99.90;;;;;;4998590;28;20765;-91
2022/08/08 09:19:59;;;;;;;3.53;2.00;;;19.90;99.90;;;;;;4982455;28;20207;-91
2022/08/08 09:22:25;;;;;;;2.37;1.90;;;19.90;99.90;;;;;;5031191;28;20270;-91
2022/08/08 09:25:37;;;;;;;2.93;2.30;;;20.00;99.90;;;;;;5014450;28;20731;-91
2022/08/08 09:52:23;;;;;;;4.57;1.67;;;20.60;99.90;;;;;;4951965;28;20240;-92
2022/08/08 10:00:45;;;;;;;;;;;;;;;;;;;;;
2022/08/08 10:03:50;;;;;;;3.10;1.33;;;20.70;99.90;;;;;;4964733;28;20709;-93
2022/08/08 11:06:25;;;;;;;;;;;;;;;;;;;;;
2022/08/08 11:21:23;;;;;;;1.42;1.30;;;27.10;99.90;;;;;;4897405;29;20253;-94
2022/08/08 11:23:51;;;;;;;1.73;1.25;;;24.80;99.90;;;;;;4908869;29;20298;-93
2022/08/08 11:26:18;;;;;;;4.50;1.55;;;24.10;99.90;;;;;;4923719;28;20208;-92
2022/08/08 11:28:45;;;;;;;1.33;1.25;;;23.70;99.90;;;;;;4984782;28;20639;-91
2022/08/08 11:31:14;;;;;;;3.10;1.35;;;23.50;99.90;;;;;;4981624;28;20183;-91
2022/08/08 11:33:47;;;;;;;1.35;1.02;;;22.80;99.90;;;;;;4984856;28;20265;-91
2022/08/08 11:36:14;;;;;;;1.35;1.25;;;22.80;99.90;;;;;;4992872;28;20672;-91
2022/08/08 11:38:45;;;;;;;1.38;1.27;;;22.90;99.90;;;;;;4976955;28;20230;-91
2022/08/08 11:41:11;;;;;;;2.42;1.10;;;23.20;99.90;;;;;;4997639;28;20266;-91
2022/08/08 11:43:40;;;;;;;1.10;1.05;;;22.80;99.90;;;;;;4980016;28;20282;-91
2022/08/08 11:46:07;;;;;;;1.90;1.17;;;22.60;99.90;;;;;;4997359;28;20175;-92
2022/08/08 11:48:33;;;;;;;1.15;1.10;;;22.30;99.90;;;;;;4981664;28;20324;-92
2022/08/08 11:51:00;;;;;;;0.90;0.90;;;22.30;99.90;;;;;;5006021;28;20243;-91
2022/08/08 11:53:26;;;;;;;1.20;1.10;;;22.70;99.90;;;;;;4976875;28;20758;-90
2022/08/08 11:55:52;;;;;;;1.83;1.38;;;23.40;99.90;;;;;;4996463;28;20177;-89
2022/08/08 11:58:18;;;;;;;1.27;1.00;;;24.10;99.90;;;;;;4992769;28;20319;-89
2022/08/08 12:00:54;;;;;;;1.75;1.20;;;24.40;99.90;;;;;;5009514;28;20258;-89
2022/08/08 12:03:23;;;;;;;1.83;1.05;;;24.00;99.90;;;;;;5012371;28;20640;-90
2022/08/08 12:05:50;;;;;;;5.20;1.75;;;23.80;99.90;;;;;;5010077;28;20207;-89
2022/08/08 12:08:28;;;;;;;1.45;0.98;;;23.90;99.90;;;;;;4979639;28;20255;-89
2022/08/08 12:10:59;;;;;;;2.75;0.90;;;24.10;99.90;;;;;;5013256;28;20241;-89
2022/08/08 12:13:25;;;;;;;1.15;1.05;;;23.90;99.90;;;;;;5000012;28;20175;-89
2022/08/08 12:15:52;;;;;;;0.90;0.90;;;24.50;99.90;;;;;;4998858;28;20269;-88
2022/08/08 12:18:23;;;;;;;2.13;1.17;;;25.00;99.90;;;;;;5012566;28;20223;-92
2022/08/08 12:20:54;;;;;;;1.42;1.10;;;24.80;99.90;;;;;;4995873;28;20219;-90
2022/08/08 12:23:34;;;;;;;1.10;0.82;;;24.40;99.90;;;;;;4996310;28;20200;-89
2022/08/08 12:26:11;;;;;;;1.00;1.00;;;24.30;99.90;;;;;;5015153;28;20213;-90
2022/08/08 12:28:37;;;;;;;1.20;1.10;;;24.40;99.90;;;;;;5001226;28;20178;-89
2022/08/08 12:31:07;;;;;;;1.48;1.15;;;24.30;99.90;;;;;;5018912;28;20193;-94
2022/08/08 12:33:33;;;;;;;1.50;0.93;;;24.00;99.90;;;;;;4983370;28;20207;-91
2022/08/08 12:36:36;;;;;;;2.00;1.17;;;23.20;99.90;;;;;;4982943;28;20688;-91
2022/08/08 12:39:02;;;;;;;1.10;1.00;;;22.80;99.90;;;;;;5044434;28;20280;-91
2022/08/08 12:41:28;;;;;;;1.10;1.10;;;22.80;99.90;;;;;;4986202;28;20210;-91
2022/08/08 12:44:04;;;;;;;1.48;1.38;;;22.50;99.90;;;;;;4986095;28;20603;-89
2022/08/08 12:46:30;;;;;;;2.53;1.52;;;22.30;99.90;;;;;;4997289;28;20188;-90
2022/08/08 12:49:00;;;;;;;2.28;1.70;;;22.00;99.90;;;;;;4998623;28;20215;-90
2022/08/08 12:51:26;;;;;;;1.83;1.45;;;22.20;99.90;;;;;;5031622;28;20630;-91
2022/08/08 12:53:58;;;;;;;5.28;1.17;;;22.40;99.90;;;;;;5018309;28;20207;-92
2022/08/08 12:56:36;;;;;;;1.60;1.40;;;22.50;99.90;;;;;;5015505;28;20572;-92
2022/08/08 12:59:13;;;;;;;5.70;1.25;;;22.70;99.90;;;;;;5017817;28;20313;-92
2022/08/08 13:01:39;;;;;;;1.75;1.17;;;22.70;99.90;;;;;;5018563;28;20226;-92
2022/08/08 13:04:23;;;;;;;2.38;1.48;;;23.50;99.90;;;;;;5018256;28;20190;-92
2022/08/08 13:06:53;;;;;;;1.80;1.70;;;23.50;99.90;;;;;;5030115;28;20277;-92
2022/08/08 13:09:52;;;;;;;2.45;1.17;;;23.20;99.90;;;;;;5021853;28;20225;-92
2022/08/08 13:12:23;;;;;;;3.00;1.42;;;22.90;99.90;;;;;;5025975;28;20218;-92
2022/08/08 13:14:51;;;;;;;2.00;1.15;;;22.80;99.90;;;;;;5071202;28;20217;-92
2022/08/08 13:17:26;;;;;;;2.70;1.40;;;22.60;99.90;;;;;;5037784;28;20630;-90
2022/08/08 13:19:55;;;;;;;1.30;1.20;;;22.40;99.90;;;;;;5018926;28;20236;-92
2022/08/08 13:22:22;;;;;;;2.95;1.50;;;22.30;99.90;;;;;;5002510;28;20638;-94
2022/08/08 13:24:48;;;;;;;3.78;1.63;;;22.30;99.90;;;;;;5017866;28;20211;-92
2022/08/08 13:27:26;;;;;;;1.38;1.27;;;22.10;99.90;;;;;;5017927;28;20211;-91
2022/08/08 13:29:58;;;;;;;1.42;1.20;;;22.50;99.90;;;;;;5017613;28;20216;-91
2022/08/08 13:32:25;;;;;;;2.63;1.25;;;22.90;99.90;;;;;;5017857;28;20241;-92
2022/08/08 13:34:54;;;;;;;1.75;1.30;;;22.90;99.90;;;;;;5017649;28;20646;-91
2022/08/08 13:37:22;;;;;;;1.40;1.30;;;23.00;99.90;;;;;;5017922;28;20186;-92
2022/08/08 13:39:55;;;;;;;1.30;1.20;;;23.30;99.90;;;;;;5017112;28;20210;-93
2022/08/08 13:42:23;;;;;;;1.30;1.20;;;23.00;99.90;;;;;;5017691;28;20301;-93
2022/08/08 13:44:57;;;;;;;1.33;1.23;;;22.80;99.90;;;;;;5001463;28;20222;-93
2022/08/08 13:47:24;;;;;;;1.80;1.30;;;22.60;99.90;;;;;;5017537;28;20221;-93
2022/08/08 13:50:19;;;;;;;1.15;1.10;;;22.60;99.90;;;;;;5001176;28;20225;-95
2022/08/08 13:52:46;;;;;;;1.02;1.02;;;22.90;99.90;;;;;;5037645;28;20305;-91
2022/08/08 13:55:12;;;;;;;1.38;1.00;;;23.10;99.90;;;;;;5002063;28;20205;-92
2022/08/08 13:57:38;;;;;;;3.28;1.00;;;23.10;99.90;;;;;;5001160;28;20211;-92
2022/08/08 14:00:04;;;;;;;1.75;1.63;;;23.30;99.90;;;;;;5001023;28;20260;-93
2022/08/08 14:02:30;;;;;;;3.03;1.40;;;23.30;99.90;;;;;;5017038;28;20231;-92
2022/08/08 14:05:04;;;;;;;2.00;0.90;;;23.30;99.90;;;;;;5000629;28;20217;-93
2022/08/08 14:07:33;;;;;;;1.42;1.33;;;23.10;99.90;;;;;;5017671;28;20208;-93
2022/08/08 14:10:06;;;;;;;1.75;1.15;;;23.10;99.90;;;;;;5049921;28;20290;-93
2022/08/08 14:12:33;;;;;;;1.95;1.30;;;23.40;99.90;;;;;;5016825;28;20214;-92
2022/08/08 14:15:00;;;;;;;2.50;1.13;;;23.50;99.90;;;;;;5001455;28;20206;-93
2022/08/08 14:17:29;;;;;;;1.90;1.30;;;23.50;99.90;;;;;;5019876;28;20240;-95
2022/08/08 14:20:07;;;;;;;2.22;1.50;;;23.50;99.90;;;;;;4998262;28;20214;-92
2022/08/08 14:22:38;;;;;;;3.40;1.30;;;23.40;99.90;;;;;;5002467;28;20175;-91
2022/08/08 14:25:07;;;;;;;2.92;1.42;;;22.90;99.90;;;;;;4997766;28;20570;-91
2022/08/08 14:27:36;;;;;;;2.53;1.02;;;22.70;99.90;;;;;;4997170;28;20310;-91
2022/08/08 14:30:02;;;;;;;2.00;1.83;;;22.80;99.90;;;;;;5019631;28;20725;-92
2022/08/08 14:32:29;;;;;;;2.60;1.40;;;22.70;99.90;;;;;;5056040;28;20243;-91
2022/08/08 14:35:06;;;;;;;2.30;1.50;;;22.80;99.90;;;;;;5016567;28;20238;-91
2022/08/08 14:37:43;;;;;;;2.03;1.20;;;22.70;99.90;;;;;;5016688;28;20651;-90
2022/08/08 14:40:17;;;;;;;1.40;1.30;;;22.90;99.90;;;;;;5016973;28;20228;-90
2022/08/08 14:42:43;;;;;;;2.35;1.52;;;22.90;99.90;;;;;;5016323;28;20214;-91
2022/08/08 14:45:11;;;;;;;1.85;1.40;;;22.30;99.90;;;;;;4999738;28;20241;-91
2022/08/08 14:48:03;;;;;;;1.90;1.50;;;22.10;99.90;;;;;;5016544;28;20214;-93
2022/08/08 14:50:33;;;;;;;1.10;1.05;;;22.10;99.90;;;;;;5030592;28;20230;-94
2022/08/08 14:53:11;;;;;;;2.53;1.08;;;22.40;99.90;;;;;;5035421;28;20222;-92
2022/08/08 14:55:38;;;;;;;1.27;1.17;;;22.50;99.90;;;;;;5001064;28;20194;-92
2022/08/08 14:58:05;;;;;;;1.77;1.08;;;22.40;99.90;;;;;;4997334;28;20215;-92
2022/08/08 15:00:32;;;;;;;0.88;0.88;;;22.50;99.90;;;;;;5001371;28;20211;-92
2022/08/08 15:02:59;;;;;;;1.15;1.10;;;22.80;99.90;;;;;;5002300;28;20230;-90
2022/08/08 15:05:27;;;;;;;1.17;1.15;;;22.90;99.90;;;;;;4998930;28;20706;-89
2022/08/08 15:07:53;;;;;;;3.10;1.00;;;22.70;99.90;;;;;;5016241;28;20734;-91
2022/08/08 15:10:21;;;;;;;2.20;1.20;;;22.60;99.90;;;;;;5000443;28;20272;-91
2022/08/08 15:12:48;;;;;;;2.75;1.38;;;22.60;99.90;;;;;;4999800;28;20250;-88
2022/08/08 15:15:16;;;;;;;120.72;14.50;;;22.50;99.90;;;;;;5015473;28;20199;-89
2022/08/08 15:17:44;;;;;;;7.68;1.77;;;22.80;99.90;;;;;;5033010;28;20309;-87